sensor_id;sensor_type;location;lat;lon;timestamp;P1;durP1;ratioP1;P2;durP2;ratioP2
55603;SDS011;41468;48.838;9.330;2023-08-30T00:02:11;8.10;;;4.67;;
55603;SDS011;41468;48.838;9.330;2023-08-30T00:04:38;5.33;;;4.93;;
55603;SDS011;41468;48.838;9.330;2023-08-30T00:07:04;4.83;;;4.53;;
55603;SDS011;41468;48.838;9.330;2023-08-30T00:09:31;5.07;;;4.77;;
55603;SDS011;41468;48.838;9.330;2023-08-30T00:12:09;4.80;;;4.50;;
55603;SDS011;41468;48.838;9.330;2023-08-30T00:14:36;5.80;;;5.00;;
55603;SDS011;41468;48.838;9.330;2023-08-30T00:17:02;5.30;;;4.90;;
55603;SDS011;41468;48.838;9.330;2023-08-30T00:19:29;5.53;;;5.13;;
55603;SDS011;41468;48.838;9.330;2023-08-30T00:21:57;5.13;;;4.73;;
55603;SDS011;41468;48.838;9.330;2023-08-30T00:24:23;5.63;;;5.17;;
55603;SDS011;41468;48.838;9.330;2023-08-30T00:26:50;5.23;;;4.80;;
55603;SDS011;41468;48.838;9.330;2023-08-30T00:29:17;5.30;;;4.90;;
55603;SDS011;41468;48.838;9.330;2023-08-30T00:31:44;5.83;;;5.43;;
55603;SDS011;41468;48.838;9.330;2023-08-30T00:34:10;5.30;;;4.90;;
55603;SDS011;41468;48.838;9.330;2023-08-30T00:36:37;5.33;;;4.93;;
55603;SDS011;41468;48.838;9.330;2023-08-30T00:39:04;5.43;;;5.13;;
55603;SDS011;41468;48.838;9.330;2023-08-30T00:41:31;5.50;;;5.10;;
55603;SDS011;41468;48.838;9.330;2023-08-30T00:43:58;5.70;;;5.30;;
55603;SDS011;41468;48.838;9.330;2023-08-30T00:46:25;6.10;;;5.70;;
55603;SDS011;41468;48.838;9.330;2023-08-30T00:48:52;7.90;;;5.67;;
55603;SDS011;41468;48.838;9.330;2023-08-30T00:51:19;6.73;;;6.03;;
55603;SDS011;41468;48.838;9.330;2023-08-30T00:53:47;5.90;;;5.50;;
55603;SDS011;41468;48.838;9.330;2023-08-30T00:56:15;6.03;;;5.53;;
55603;SDS011;41468;48.838;9.330;2023-08-30T00:58:42;5.40;;;5.00;;
55603;SDS011;41468;48.838;9.330;2023-08-30T01:01:09;5.90;;;5.40;;
55603;SDS011;41468;48.838;9.330;2023-08-30T01:03:36;5.97;;;5.47;;
55603;SDS011;41468;48.838;9.330;2023-08-30T01:06:08;5.90;;;5.23;;
55603;SDS011;41468;48.838;9.330;2023-08-30T01:08:41;5.65;;;5.32;;
55603;SDS011;41468;48.838;9.330;2023-08-30T01:11:18;6.37;;;5.77;;
55603;SDS011;41468;48.838;9.330;2023-08-30T01:14:04;6.07;;;5.57;;
55603;SDS011;41468;48.838;9.330;2023-08-30T01:16:37;7.10;;;5.95;;
55603;SDS011;41468;48.838;9.330;2023-08-30T01:19:10;6.37;;;5.87;;
55603;SDS011;41468;48.838;9.330;2023-08-30T01:22:00;6.93;;;6.35;;
55603;SDS011;41468;48.838;9.330;2023-08-30T01:24:40;6.37;;;5.87;;
55603;SDS011;41468;48.838;9.330;2023-08-30T01:27:11;5.90;;;5.27;;
55603;SDS011;41468;48.838;9.330;2023-08-30T01:29:40;5.90;;;5.50;;
55603;SDS011;41468;48.838;9.330;2023-08-30T01:32:11;6.63;;;5.97;;
55603;SDS011;41468;48.838;9.330;2023-08-30T01:34:38;6.03;;;5.53;;
55603;SDS011;41468;48.838;9.330;2023-08-30T01:37:07;6.40;;;5.90;;
55603;SDS011;41468;48.838;9.330;2023-08-30T01:39:37;5.83;;;5.43;;
55603;SDS011;41468;48.838;9.330;2023-08-30T01:42:06;5.77;;;5.27;;
55603;SDS011;41468;48.838;9.330;2023-08-30T01:44:35;6.10;;;5.60;;
55603;SDS011;41468;48.838;9.330;2023-08-30T01:47:04;6.87;;;5.53;;
55603;SDS011;41468;48.838;9.330;2023-08-30T01:49:32;5.50;;;5.00;;
55603;SDS011;41468;48.838;9.330;2023-08-30T01:52:00;5.87;;;5.47;;
55603;SDS011;41468;48.838;9.330;2023-08-30T01:54:28;9.57;;;5.60;;
55603;SDS011;41468;48.838;9.330;2023-08-30T01:56:56;5.63;;;5.30;;
55603;SDS011;41468;48.838;9.330;2023-08-30T01:59:24;6.43;;;5.90;;
55603;SDS011;41468;48.838;9.330;2023-08-30T02:01:51;5.90;;;5.50;;
55603;SDS011;41468;48.838;9.330;2023-08-30T02:04:18;6.70;;;5.60;;
55603;SDS011;41468;48.838;9.330;2023-08-30T02:07:03;5.87;;;5.47;;
55603;SDS011;41468;48.838;9.330;2023-08-30T02:09:48;8.10;;;5.87;;
55603;SDS011;41468;48.838;9.330;2023-08-30T02:12:22;6.20;;;5.77;;
55603;SDS011;41468;48.838;9.330;2023-08-30T02:14:51;6.43;;;5.73;;
55603;SDS011;41468;48.838;9.330;2023-08-30T02:17:19;6.20;;;5.70;;
55603;SDS011;41468;48.838;9.330;2023-08-30T02:19:47;6.10;;;5.60;;
55603;SDS011;41468;48.838;9.330;2023-08-30T02:22:14;8.67;;;6.00;;
55603;SDS011;41468;48.838;9.330;2023-08-30T02:24:40;6.90;;;5.50;;
55603;SDS011;41468;48.838;9.330;2023-08-30T02:27:07;5.73;;;5.33;;
55603;SDS011;41468;48.838;9.330;2023-08-30T02:29:34;6.67;;;5.37;;
55603;SDS011;41468;48.838;9.330;2023-08-30T02:32:01;6.73;;;5.63;;
55603;SDS011;41468;48.838;9.330;2023-08-30T02:34:27;5.90;;;5.40;;
55603;SDS011;41468;48.838;9.330;2023-08-30T02:36:54;5.80;;;5.30;;
55603;SDS011;41468;48.838;9.330;2023-08-30T02:39:26;8.10;;;5.63;;
55603;SDS011;41468;48.838;9.330;2023-08-30T02:41:53;5.93;;;5.43;;
55603;SDS011;41468;48.838;9.330;2023-08-30T02:44:20;6.37;;;5.70;;
55603;SDS011;41468;48.838;9.330;2023-08-30T02:46:47;5.67;;;5.27;;
55603;SDS011;41468;48.838;9.330;2023-08-30T02:49:13;5.97;;;5.13;;
55603;SDS011;41468;48.838;9.330;2023-08-30T02:51:40;5.60;;;5.20;;
55603;SDS011;41468;48.838;9.330;2023-08-30T02:54:07;5.63;;;5.23;;
55603;SDS011;41468;48.838;9.330;2023-08-30T02:56:34;6.10;;;5.60;;
55603;SDS011;41468;48.838;9.330;2023-08-30T02:59:00;8.13;;;6.13;;
55603;SDS011;41468;48.838;9.330;2023-08-30T03:01:27;5.93;;;5.47;;
55603;SDS011;41468;48.838;9.330;2023-08-30T03:03:54;6.33;;;5.90;;
55603;SDS011;41468;48.838;9.330;2023-08-30T03:06:21;5.33;;;4.93;;
55603;SDS011;41468;48.838;9.330;2023-08-30T03:08:48;5.67;;;5.27;;
55603;SDS011;41468;48.838;9.330;2023-08-30T03:11:14;6.67;;;6.17;;
55603;SDS011;41468;48.838;9.330;2023-08-30T03:13:41;6.70;;;6.00;;
55603;SDS011;41468;48.838;9.330;2023-08-30T03:16:11;5.73;;;5.33;;
55603;SDS011;41468;48.838;9.330;2023-08-30T03:18:39;6.40;;;5.80;;
55603;SDS011;41468;48.838;9.330;2023-08-30T03:21:06;6.47;;;5.97;;
55603;SDS011;41468;48.838;9.330;2023-08-30T03:23:34;6.97;;;6.47;;
55603;SDS011;41468;48.838;9.330;2023-08-30T03:26:11;6.50;;;6.00;;
55603;SDS011;41468;48.838;9.330;2023-08-30T03:28:39;7.57;;;6.40;;
55603;SDS011;41468;48.838;9.330;2023-08-30T03:31:11;6.80;;;6.20;;
55603;SDS011;41468;48.838;9.330;2023-08-30T03:33:45;6.50;;;5.90;;
55603;SDS011;41468;48.838;9.330;2023-08-30T03:36:14;6.23;;;5.80;;
55603;SDS011;41468;48.838;9.330;2023-08-30T03:38:42;6.53;;;5.93;;
55603;SDS011;41468;48.838;9.330;2023-08-30T03:41:10;7.17;;;6.63;;
55603;SDS011;41468;48.838;9.330;2023-08-30T03:43:37;7.53;;;6.80;;
55603;SDS011;41468;48.838;9.330;2023-08-30T03:46:04;7.00;;;6.40;;
55603;SDS011;41468;48.838;9.330;2023-08-30T03:48:31;6.93;;;6.43;;
55603;SDS011;41468;48.838;9.330;2023-08-30T03:50:58;7.30;;;6.60;;
55603;SDS011;41468;48.838;9.330;2023-08-30T03:53:25;7.00;;;6.50;;
55603;SDS011;41468;48.838;9.330;2023-08-30T03:55:52;6.83;;;6.13;;
55603;SDS011;41468;48.838;9.330;2023-08-30T03:58:19;7.67;;;6.80;;
55603;SDS011;41468;48.838;9.330;2023-08-30T04:00:46;7.03;;;6.33;;
55603;SDS011;41468;48.838;9.330;2023-08-30T04:03:14;6.70;;;6.20;;
55603;SDS011;41468;48.838;9.330;2023-08-30T04:05:42;6.43;;;5.83;;
55603;SDS011;41468;48.838;9.330;2023-08-30T04:08:09;7.17;;;6.57;;
55603;SDS011;41468;48.838;9.330;2023-08-30T04:10:38;7.30;;;6.70;;
55603;SDS011;41468;48.838;9.330;2023-08-30T04:13:06;6.87;;;6.27;;
55603;SDS011;41468;48.838;9.330;2023-08-30T04:15:35;6.53;;;6.03;;
55603;SDS011;41468;48.838;9.330;2023-08-30T04:18:03;8.03;;;6.33;;
55603;SDS011;41468;48.838;9.330;2023-08-30T04:20:31;7.23;;;6.63;;
55603;SDS011;41468;48.838;9.330;2023-08-30T04:22:59;7.30;;;6.67;;
55603;SDS011;41468;48.838;9.330;2023-08-30T04:25:31;6.63;;;6.00;;
55603;SDS011;41468;48.838;9.330;2023-08-30T04:28:00;7.03;;;6.43;;
55603;SDS011;41468;48.838;9.330;2023-08-30T04:30:27;7.57;;;6.77;;
55603;SDS011;41468;48.838;9.330;2023-08-30T04:32:53;6.63;;;6.03;;
55603;SDS011;41468;48.838;9.330;2023-08-30T04:35:21;7.13;;;6.53;;
55603;SDS011;41468;48.838;9.330;2023-08-30T04:37:47;7.20;;;6.50;;
55603;SDS011;41468;48.838;9.330;2023-08-30T04:40:17;7.03;;;6.33;;
55603;SDS011;41468;48.838;9.330;2023-08-30T04:42:44;6.83;;;5.93;;
55603;SDS011;41468;48.838;9.330;2023-08-30T04:45:11;6.70;;;6.20;;
55603;SDS011;41468;48.838;9.330;2023-08-30T04:47:37;7.13;;;6.43;;
55603;SDS011;41468;48.838;9.330;2023-08-30T04:50:04;6.77;;;6.27;;
55603;SDS011;41468;48.838;9.330;2023-08-30T04:52:32;6.83;;;6.23;;
55603;SDS011;41468;48.838;9.330;2023-08-30T04:54:59;6.60;;;6.03;;
55603;SDS011;41468;48.838;9.330;2023-08-30T04:57:26;7.20;;;6.60;;
55603;SDS011;41468;48.838;9.330;2023-08-30T04:59:52;7.03;;;6.20;;
55603;SDS011;41468;48.838;9.330;2023-08-30T05:02:19;6.30;;;5.80;;
55603;SDS011;41468;48.838;9.330;2023-08-30T05:04:46;6.10;;;5.70;;
55603;SDS011;41468;48.838;9.330;2023-08-30T05:07:13;6.80;;;6.23;;
55603;SDS011;41468;48.838;9.330;2023-08-30T05:09:39;6.27;;;5.83;;
55603;SDS011;41468;48.838;9.330;2023-08-30T05:12:07;6.43;;;5.60;;
55603;SDS011;41468;48.838;9.330;2023-08-30T05:14:34;9.60;;;6.43;;
55603;SDS011;41468;48.838;9.330;2023-08-30T05:17:01;7.17;;;6.50;;
55603;SDS011;41468;48.838;9.330;2023-08-30T05:19:28;8.13;;;7.43;;
55603;SDS011;41468;48.838;9.330;2023-08-30T05:21:55;7.33;;;6.67;;
55603;SDS011;41468;48.838;9.330;2023-08-30T05:24:22;7.90;;;7.20;;
55603;SDS011;41468;48.838;9.330;2023-08-30T05:26:49;7.60;;;7.00;;
55603;SDS011;41468;48.838;9.330;2023-08-30T05:29:16;12.37;;;11.23;;
55603;SDS011;41468;48.838;9.330;2023-08-30T05:31:42;9.40;;;8.50;;
55603;SDS011;41468;48.838;9.330;2023-08-30T05:34:10;9.93;;;9.10;;
55603;SDS011;41468;48.838;9.330;2023-08-30T05:36:38;8.53;;;7.83;;
55603;SDS011;41468;48.838;9.330;2023-08-30T05:39:05;8.03;;;7.23;;
55603;SDS011;41468;48.838;9.330;2023-08-30T05:41:32;8.03;;;7.27;;
55603;SDS011;41468;48.838;9.330;2023-08-30T05:43:59;9.37;;;8.30;;
55603;SDS011;41468;48.838;9.330;2023-08-30T05:46:26;9.57;;;8.67;;
55603;SDS011;41468;48.838;9.330;2023-08-30T05:48:53;7.37;;;6.77;;
55603;SDS011;41468;48.838;9.330;2023-08-30T05:51:21;8.23;;;7.43;;
55603;SDS011;41468;48.838;9.330;2023-08-30T05:53:47;7.77;;;7.13;;
55603;SDS011;41468;48.838;9.330;2023-08-30T05:56:14;7.37;;;6.67;;
55603;SDS011;41468;48.838;9.330;2023-08-30T05:58:41;7.37;;;6.77;;
55603;SDS011;41468;48.838;9.330;2023-08-30T06:01:08;6.80;;;6.30;;
55603;SDS011;41468;48.838;9.330;2023-08-30T06:03:34;7.60;;;6.80;;
55603;SDS011;41468;48.838;9.330;2023-08-30T06:06:02;7.53;;;6.83;;
55603;SDS011;41468;48.838;9.330;2023-08-30T06:08:29;7.00;;;6.40;;
55603;SDS011;41468;48.838;9.330;2023-08-30T06:10:56;14.07;;;12.67;;
55603;SDS011;41468;48.838;9.330;2023-08-30T06:13:23;8.27;;;7.57;;
55603;SDS011;41468;48.838;9.330;2023-08-30T06:15:51;7.00;;;6.30;;
55603;SDS011;41468;48.838;9.330;2023-08-30T06:18:18;8.03;;;6.00;;
55603;SDS011;41468;48.838;9.330;2023-08-30T06:20:46;6.83;;;5.83;;
55603;SDS011;41468;48.838;9.330;2023-08-30T06:23:24;6.67;;;5.90;;
55603;SDS011;41468;48.838;9.330;2023-08-30T06:25:54;7.77;;;6.47;;
55603;SDS011;41468;48.838;9.330;2023-08-30T06:28:24;6.53;;;6.03;;
55603;SDS011;41468;48.838;9.330;2023-08-30T06:30:51;6.53;;;6.03;;
55603;SDS011;41468;48.838;9.330;2023-08-30T06:33:18;6.53;;;6.03;;
55603;SDS011;41468;48.838;9.330;2023-08-30T06:35:47;6.63;;;6.13;;
55603;SDS011;41468;48.838;9.330;2023-08-30T06:38:14;6.07;;;5.67;;
55603;SDS011;41468;48.838;9.330;2023-08-30T06:40:44;8.07;;;5.83;;
55603;SDS011;41468;48.838;9.330;2023-08-30T06:43:12;6.27;;;5.67;;
55603;SDS011;41468;48.838;9.330;2023-08-30T06:45:39;6.90;;;6.00;;
55603;SDS011;41468;48.838;9.330;2023-08-30T06:48:06;6.73;;;6.07;;
55603;SDS011;41468;48.838;9.330;2023-08-30T06:50:37;5.87;;;5.47;;
55603;SDS011;41468;48.838;9.330;2023-08-30T06:53:03;8.73;;;4.90;;
55603;SDS011;41468;48.838;9.330;2023-08-30T06:55:30;6.67;;;5.93;;
55603;SDS011;41468;48.838;9.330;2023-08-30T06:57:58;6.20;;;5.70;;
55603;SDS011;41468;48.838;9.330;2023-08-30T07:00:25;5.60;;;5.20;;
55603;SDS011;41468;48.838;9.330;2023-08-30T07:02:52;5.50;;;5.00;;
55603;SDS011;41468;48.838;9.330;2023-08-30T07:05:20;5.37;;;4.97;;
55603;SDS011;41468;48.838;9.330;2023-08-30T07:07:48;6.07;;;5.53;;
55603;SDS011;41468;48.838;9.330;2023-08-30T07:10:15;5.63;;;5.23;;
55603;SDS011;41468;48.838;9.330;2023-08-30T07:12:42;6.07;;;5.50;;
55603;SDS011;41468;48.838;9.330;2023-08-30T07:15:08;5.87;;;5.37;;
55603;SDS011;41468;48.838;9.330;2023-08-30T07:17:35;5.67;;;5.27;;
55603;SDS011;41468;48.838;9.330;2023-08-30T07:20:18;5.17;;;4.87;;
55603;SDS011;41468;48.838;9.330;2023-08-30T07:22:45;5.37;;;4.97;;
55603;SDS011;41468;48.838;9.330;2023-08-30T07:25:11;5.93;;;5.53;;
55603;SDS011;41468;48.838;9.330;2023-08-30T07:27:40;5.57;;;5.07;;
55603;SDS011;41468;48.838;9.330;2023-08-30T07:30:07;5.80;;;5.30;;
55603;SDS011;41468;48.838;9.330;2023-08-30T07:32:34;5.57;;;5.03;;
55603;SDS011;41468;48.838;9.330;2023-08-30T07:35:02;5.73;;;5.23;;
55603;SDS011;41468;48.838;9.330;2023-08-30T07:37:30;5.70;;;5.30;;
55603;SDS011;41468;48.838;9.330;2023-08-30T07:39:57;5.63;;;5.13;;
55603;SDS011;41468;48.838;9.330;2023-08-30T07:42:24;5.90;;;5.50;;
55603;SDS011;41468;48.838;9.330;2023-08-30T07:44:50;5.97;;;5.10;;
55603;SDS011;41468;48.838;9.330;2023-08-30T07:47:17;5.50;;;5.00;;
55603;SDS011;41468;48.838;9.330;2023-08-30T07:49:44;5.40;;;5.00;;
55603;SDS011;41468;48.838;9.330;2023-08-30T07:52:11;5.27;;;4.93;;
55603;SDS011;41468;48.838;9.330;2023-08-30T07:54:40;4.90;;;4.40;;
55603;SDS011;41468;48.838;9.330;2023-08-30T07:57:07;4.57;;;4.27;;
55603;SDS011;41468;48.838;9.330;2023-08-30T07:59:37;4.00;;;3.77;;
55603;SDS011;41468;48.838;9.330;2023-08-30T08:02:04;5.67;;;3.80;;
55603;SDS011;41468;48.838;9.330;2023-08-30T08:04:35;4.50;;;4.10;;
55603;SDS011;41468;48.838;9.330;2023-08-30T08:07:02;10.10;;;4.20;;
55603;SDS011;41468;48.838;9.330;2023-08-30T08:09:31;3.80;;;3.50;;
55603;SDS011;41468;48.838;9.330;2023-08-30T08:11:58;6.05;;;4.03;;
55603;SDS011;41468;48.838;9.330;2023-08-30T08:14:25;4.35;;;3.40;;
55603;SDS011;41468;48.838;9.330;2023-08-30T08:16:53;4.20;;;3.77;;
55603;SDS011;41468;48.838;9.330;2023-08-30T08:19:19;3.73;;;3.40;;
55603;SDS011;41468;48.838;9.330;2023-08-30T08:21:51;3.67;;;3.33;;
55603;SDS011;41468;48.838;9.330;2023-08-30T08:24:20;3.93;;;3.37;;
55603;SDS011;41468;48.838;9.330;2023-08-30T08:26:47;8.17;;;3.37;;
55603;SDS011;41468;48.838;9.330;2023-08-30T08:29:14;3.30;;;3.10;;
55603;SDS011;41468;48.838;9.330;2023-08-30T08:31:41;5.10;;;3.20;;
55603;SDS011;41468;48.838;9.330;2023-08-30T08:36:39;3.15;;;2.95;;
55603;SDS011;41468;48.838;9.330;2023-08-30T08:39:08;3.40;;;3.20;;
55603;SDS011;41468;48.838;9.330;2023-08-30T08:41:40;3.30;;;3.10;;
55603;SDS011;41468;48.838;9.330;2023-08-30T08:44:11;4.60;;;3.47;;
55603;SDS011;41468;48.838;9.330;2023-08-30T08:46:39;3.05;;;2.85;;
55603;SDS011;41468;48.838;9.330;2023-08-30T08:49:16;3.60;;;3.40;;
55603;SDS011;41468;48.838;9.330;2023-08-30T08:51:44;3.50;;;3.30;;
55603;SDS011;41468;48.838;9.330;2023-08-30T08:54:12;3.72;;;3.42;;
55603;SDS011;41468;48.838;9.330;2023-08-30T08:56:39;3.88;;;3.30;;
55603;SDS011;41468;48.838;9.330;2023-08-30T08:59:07;3.40;;;3.20;;
55603;SDS011;41468;48.838;9.330;2023-08-30T09:01:35;4.70;;;3.60;;
55603;SDS011;41468;48.838;9.330;2023-08-30T09:04:07;3.10;;;2.90;;
55603;SDS011;41468;48.838;9.330;2023-08-30T09:06:35;4.85;;;3.28;;
55603;SDS011;41468;48.838;9.330;2023-08-30T09:09:03;3.60;;;3.40;;
55603;SDS011;41468;48.838;9.330;2023-08-30T09:11:31;4.25;;;3.85;;
55603;SDS011;41468;48.838;9.330;2023-08-30T09:14:01;4.90;;;3.20;;
55603;SDS011;41468;48.838;9.330;2023-08-30T09:16:28;4.93;;;3.00;;
55603;SDS011;41468;48.838;9.330;2023-08-30T09:18:58;4.57;;;3.00;;
55603;SDS011;41468;48.838;9.330;2023-08-30T09:21:36;4.32;;;3.28;;
55603;SDS011;41468;48.838;9.330;2023-08-30T09:24:04;3.00;;;2.72;;
55603;SDS011;41468;48.838;9.330;2023-08-30T09:26:34;4.88;;;2.80;;
55603;SDS011;41468;48.838;9.330;2023-08-30T09:29:03;2.97;;;2.72;;
55603;SDS011;41468;48.838;9.330;2023-08-30T09:31:34;3.03;;;2.83;;
55603;SDS011;41468;48.838;9.330;2023-08-30T09:34:05;3.00;;;2.80;;
55603;SDS011;41468;48.838;9.330;2023-08-30T09:36:33;2.90;;;2.70;;
55603;SDS011;41468;48.838;9.330;2023-08-30T09:39:08;2.55;;;2.45;;
55603;SDS011;41468;48.838;9.330;2023-08-30T09:41:36;3.00;;;2.80;;
55603;SDS011;41468;48.838;9.330;2023-08-30T09:44:13;7.43;;;3.38;;
55603;SDS011;41468;48.838;9.330;2023-08-30T09:46:44;2.40;;;2.30;;
55603;SDS011;41468;48.838;9.330;2023-08-30T09:49:22;2.65;;;2.45;;
55603;SDS011;41468;48.838;9.330;2023-08-30T09:51:50;2.47;;;2.38;;
55603;SDS011;41468;48.838;9.330;2023-08-30T09:54:19;2.38;;;2.28;;
55603;SDS011;41468;48.838;9.330;2023-08-30T09:57:05;2.10;;;2.00;;
55603;SDS011;41468;48.838;9.330;2023-08-30T09:59:32;2.45;;;1.90;;
55603;SDS011;41468;48.838;9.330;2023-08-30T10:01:59;1.95;;;1.85;;
55603;SDS011;41468;48.838;9.330;2023-08-30T10:04:27;2.53;;;2.33;;
55603;SDS011;41468;48.838;9.330;2023-08-30T10:06:55;2.00;;;1.90;;
55603;SDS011;41468;48.838;9.330;2023-08-30T10:09:26;1.90;;;1.80;;
55603;SDS011;41468;48.838;9.330;2023-08-30T10:11:55;2.45;;;1.90;;
55603;SDS011;41468;48.838;9.330;2023-08-30T10:14:24;2.10;;;1.98;;
55603;SDS011;41468;48.838;9.330;2023-08-30T10:16:51;1.88;;;1.77;;
55603;SDS011;41468;48.838;9.330;2023-08-30T10:19:26;2.20;;;2.08;;
55603;SDS011;41468;48.838;9.330;2023-08-30T10:22:03;2.00;;;1.90;;
55603;SDS011;41468;48.838;9.330;2023-08-30T10:27:38;1.42;;;1.42;;
55603;SDS011;41468;48.838;9.330;2023-08-30T10:30:08;1.80;;;1.70;;
55603;SDS011;41468;48.838;9.330;2023-08-30T10:32:43;3.00;;;1.77;;
55603;SDS011;41468;48.838;9.330;2023-08-30T10:35:14;1.90;;;1.77;;
55603;SDS011;41468;48.838;9.330;2023-08-30T10:37:53;1.60;;;1.60;;
55603;SDS011;41468;48.838;9.330;2023-08-30T10:40:23;1.60;;;1.50;;
55603;SDS011;41468;48.838;9.330;2023-08-30T10:43:00;2.08;;;1.70;;
55603;SDS011;41468;48.838;9.330;2023-08-30T10:45:30;1.77;;;1.67;;
55603;SDS011;41468;48.838;9.330;2023-08-30T10:47:58;2.28;;;2.10;;
55603;SDS011;41468;48.838;9.330;2023-08-30T10:50:29;2.83;;;1.80;;
55603;SDS011;41468;48.838;9.330;2023-08-30T10:52:59;1.65;;;1.60;;
55603;SDS011;41468;48.838;9.330;2023-08-30T10:55:26;3.03;;;1.48;;
55603;SDS011;41468;48.838;9.330;2023-08-30T10:58:03;1.63;;;1.50;;
55603;SDS011;41468;48.838;9.330;2023-08-30T11:00:33;1.77;;;1.50;;
55603;SDS011;41468;48.838;9.330;2023-08-30T11:03:02;1.80;;;1.70;;
55603;SDS011;41468;48.838;9.330;2023-08-30T11:05:30;1.60;;;1.60;;
55603;SDS011;41468;48.838;9.330;2023-08-30T11:07:57;1.73;;;1.63;;
55603;SDS011;41468;48.838;9.330;2023-08-30T11:10:23;5.82;;;1.98;;
55603;SDS011;41468;48.838;9.330;2023-08-30T11:12:50;2.85;;;1.60;;
55603;SDS011;41468;48.838;9.330;2023-08-30T11:15:18;1.67;;;1.58;;
55603;SDS011;41468;48.838;9.330;2023-08-30T11:17:45;1.90;;;1.70;;
55603;SDS011;41468;48.838;9.330;2023-08-30T11:20:13;1.27;;;1.23;;
55603;SDS011;41468;48.838;9.330;2023-08-30T11:22:44;1.80;;;1.70;;
55603;SDS011;41468;48.838;9.330;2023-08-30T11:25:23;3.08;;;1.60;;
55603;SDS011;41468;48.838;9.330;2023-08-30T11:27:50;1.70;;;1.60;;
55603;SDS011;41468;48.838;9.330;2023-08-30T11:30:28;1.60;;;1.50;;
55603;SDS011;41468;48.838;9.330;2023-08-30T11:32:57;1.52;;;1.50;;
55603;SDS011;41468;48.838;9.330;2023-08-30T11:35:24;1.13;;;1.13;;
55603;SDS011;41468;48.838;9.330;2023-08-30T11:37:50;1.92;;;1.65;;
55603;SDS011;41468;48.838;9.330;2023-08-30T11:40:17;0.98;;;0.98;;
55603;SDS011;41468;48.838;9.330;2023-08-30T11:42:44;1.40;;;1.30;;
55603;SDS011;41468;48.838;9.330;2023-08-30T11:45:13;1.15;;;1.15;;
55603;SDS011;41468;48.838;9.330;2023-08-30T11:47:41;2.35;;;1.30;;
55603;SDS011;41468;48.838;9.330;2023-08-30T11:50:09;4.03;;;1.40;;
55603;SDS011;41468;48.838;9.330;2023-08-30T11:52:39;1.40;;;1.30;;
55603;SDS011;41468;48.838;9.330;2023-08-30T11:55:06;1.42;;;1.23;;
55603;SDS011;41468;48.838;9.330;2023-08-30T11:57:33;3.38;;;1.60;;
55603;SDS011;41468;48.838;9.330;2023-08-30T12:00:12;2.05;;;1.48;;
55603;SDS011;41468;48.838;9.330;2023-08-30T12:02:39;1.40;;;1.30;;
55603;SDS011;41468;48.838;9.330;2023-08-30T12:05:10;2.10;;;1.45;;
55603;SDS011;41468;48.838;9.330;2023-08-30T12:07:38;2.17;;;1.98;;
55603;SDS011;41468;48.838;9.330;2023-08-30T12:10:07;1.33;;;1.23;;
55603;SDS011;41468;48.838;9.330;2023-08-30T12:12:35;2.25;;;1.58;;
55603;SDS011;41468;48.838;9.330;2023-08-30T12:15:12;3.50;;;1.52;;
55603;SDS011;41468;48.838;9.330;2023-08-30T12:17:40;2.58;;;1.85;;
55603;SDS011;41468;48.838;9.330;2023-08-30T12:20:17;2.92;;;2.47;;
55603;SDS011;41468;48.838;9.330;2023-08-30T12:22:47;11.02;;;10.07;;
55603;SDS011;41468;48.838;9.330;2023-08-30T12:25:22;6.63;;;3.35;;
55603;SDS011;41468;48.838;9.330;2023-08-30T12:27:53;5.22;;;3.90;;
55603;SDS011;41468;48.838;9.330;2023-08-30T12:30:20;4.90;;;2.92;;
55603;SDS011;41468;48.838;9.330;2023-08-30T12:32:47;6.22;;;4.95;;
55603;SDS011;41468;48.838;9.330;2023-08-30T12:35:15;7.72;;;4.15;;
55603;SDS011;41468;48.838;9.330;2023-08-30T12:37:42;3.28;;;3.05;;
55603;SDS011;41468;48.838;9.330;2023-08-30T12:40:15;5.35;;;4.85;;
55603;SDS011;41468;48.838;9.330;2023-08-30T12:42:42;3.55;;;3.25;;
55603;SDS011;41468;48.838;9.330;2023-08-30T12:45:09;4.03;;;3.75;;
55603;SDS011;41468;48.838;9.330;2023-08-30T12:47:37;3.47;;;3.20;;
55603;SDS011;41468;48.838;9.330;2023-08-30T12:50:04;3.83;;;3.20;;
55603;SDS011;41468;48.838;9.330;2023-08-30T12:52:31;4.22;;;3.25;;
55603;SDS011;41468;48.838;9.330;2023-08-30T12:54:58;9.15;;;8.27;;
55603;SDS011;41468;48.838;9.330;2023-08-30T12:57:25;4.13;;;3.83;;
55603;SDS011;41468;48.838;9.330;2023-08-30T12:59:52;4.05;;;3.78;;
55603;SDS011;41468;48.838;9.330;2023-08-30T13:02:19;5.75;;;3.67;;
55603;SDS011;41468;48.838;9.330;2023-08-30T13:04:46;3.90;;;3.60;;
55603;SDS011;41468;48.838;9.330;2023-08-30T13:07:13;3.90;;;3.60;;
55603;SDS011;41468;48.838;9.330;2023-08-30T13:09:45;6.75;;;3.63;;
55603;SDS011;41468;48.838;9.330;2023-08-30T13:12:12;3.80;;;3.47;;
55603;SDS011;41468;48.838;9.330;2023-08-30T13:14:39;3.60;;;3.30;;
55603;SDS011;41468;48.838;9.330;2023-08-30T13:17:06;4.80;;;3.28;;
55603;SDS011;41468;48.838;9.330;2023-08-30T13:19:33;2.70;;;2.50;;
55603;SDS011;41468;48.838;9.330;2023-08-30T13:22:00;2.20;;;2.05;;
55603;SDS011;41468;48.838;9.330;2023-08-30T13:24:27;2.28;;;2.13;;
55603;SDS011;41468;48.838;9.330;2023-08-30T13:26:54;2.05;;;1.92;;
55603;SDS011;41468;48.838;9.330;2023-08-30T13:29:21;2.50;;;2.05;;
55603;SDS011;41468;48.838;9.330;2023-08-30T13:31:47;2.22;;;1.90;;
55603;SDS011;41468;48.838;9.330;2023-08-30T13:34:14;1.42;;;1.42;;
55603;SDS011;41468;48.838;9.330;2023-08-30T13:36:41;1.80;;;1.70;;
55603;SDS011;41468;48.838;9.330;2023-08-30T13:39:08;1.83;;;1.67;;
55603;SDS011;41468;48.838;9.330;2023-08-30T13:41:34;2.00;;;1.80;;
55603;SDS011;41468;48.838;9.330;2023-08-30T13:44:02;1.40;;;1.30;;
55603;SDS011;41468;48.838;9.330;2023-08-30T13:46:32;1.75;;;1.65;;
55603;SDS011;41468;48.838;9.330;2023-08-30T13:49:00;1.90;;;1.80;;
55603;SDS011;41468;48.838;9.330;2023-08-30T13:51:26;1.60;;;1.50;;
55603;SDS011;41468;48.838;9.330;2023-08-30T13:53:53;1.45;;;1.35;;
55603;SDS011;41468;48.838;9.330;2023-08-30T13:56:22;1.20;;;1.20;;
55603;SDS011;41468;48.838;9.330;2023-08-30T13:58:50;1.23;;;1.23;;
55603;SDS011;41468;48.838;9.330;2023-08-30T14:01:17;1.10;;;1.10;;
55603;SDS011;41468;48.838;9.330;2023-08-30T14:03:44;1.30;;;1.30;;
55603;SDS011;41468;48.838;9.330;2023-08-30T14:06:11;1.40;;;1.30;;
55603;SDS011;41468;48.838;9.330;2023-08-30T14:08:38;1.60;;;1.50;;
55603;SDS011;41468;48.838;9.330;2023-08-30T14:11:05;1.25;;;1.25;;
55603;SDS011;41468;48.838;9.330;2023-08-30T14:13:31;1.00;;;1.00;;
55603;SDS011;41468;48.838;9.330;2023-08-30T14:16:02;3.95;;;1.50;;
55603;SDS011;41468;48.838;9.330;2023-08-30T14:18:30;1.75;;;1.60;;
55603;SDS011;41468;48.838;9.330;2023-08-30T14:20:57;1.60;;;1.50;;
55603;SDS011;41468;48.838;9.330;2023-08-30T14:23:26;1.67;;;1.55;;
55603;SDS011;41468;48.838;9.330;2023-08-30T14:25:59;1.33;;;1.20;;
55603;SDS011;41468;48.838;9.330;2023-08-30T14:28:27;1.30;;;1.20;;
55603;SDS011;41468;48.838;9.330;2023-08-30T14:30:54;1.38;;;1.35;;
55603;SDS011;41468;48.838;9.330;2023-08-30T14:33:21;1.50;;;1.42;;
55603;SDS011;41468;48.838;9.330;2023-08-30T14:35:48;1.85;;;1.20;;
55603;SDS011;41468;48.838;9.330;2023-08-30T14:38:15;1.58;;;1.13;;
55603;SDS011;41468;48.838;9.330;2023-08-30T14:40:41;3.00;;;1.35;;
55603;SDS011;41468;48.838;9.330;2023-08-30T14:43:19;1.20;;;1.20;;
55603;SDS011;41468;48.838;9.330;2023-08-30T14:45:46;1.20;;;1.20;;
55603;SDS011;41468;48.838;9.330;2023-08-30T14:48:23;3.00;;;1.17;;
55603;SDS011;41468;48.838;9.330;2023-08-30T14:50:50;1.20;;;1.20;;
55603;SDS011;41468;48.838;9.330;2023-08-30T14:53:17;1.17;;;1.17;;
55603;SDS011;41468;48.838;9.330;2023-08-30T14:55:44;1.27;;;1.23;;
55603;SDS011;41468;48.838;9.330;2023-08-30T14:58:12;1.25;;;1.17;;
55603;SDS011;41468;48.838;9.330;2023-08-30T15:00:40;1.30;;;1.20;;
55603;SDS011;41468;48.838;9.330;2023-08-30T15:03:07;1.63;;;1.40;;